createdAt,value
2023-05-11T00:00:37.192Z,12.50
2023-05-11T00:03:04.002Z,12.50
2023-05-11T00:05:30.708Z,12.50
2023-05-11T00:07:57.214Z,12.40
2023-05-11T00:10:23.823Z,12.40
2023-05-11T00:12:50.298Z,12.50
2023-05-11T00:15:16.894Z,12.50
2023-05-11T00:17:43.488Z,12.50
2023-05-11T00:20:10.429Z,12.50
2023-05-11T00:22:36.937Z,12.50
2023-05-11T00:25:03.599Z,12.40
2023-05-11T00:27:30.521Z,12.40
2023-05-11T00:29:57.038Z,12.30
2023-05-11T00:32:23.502Z,12.40
2023-05-11T00:34:50.278Z,12.40
2023-05-11T00:37:16.815Z,12.40
2023-05-11T00:39:43.329Z,12.20
2023-05-11T00:42:11.254Z,12.10
2023-05-11T00:44:37.834Z,11.90
2023-05-11T00:47:04.705Z,11.90
2023-05-11T00:49:31.484Z,12.00
2023-05-11T00:51:58.018Z,12.10
2023-05-11T00:54:24.881Z,12.10
2023-05-11T00:56:51.783Z,12.20
2023-05-11T00:59:18.746Z,12.20
2023-05-11T01:01:45.638Z,12.20
2023-05-11T01:04:12.962Z,12.00
2023-05-11T01:07:16.070Z,11.70
2023-05-11T01:10:20.595Z,11.40
2023-05-11T01:12:57.800Z,11.30
2023-05-11T01:15:37.026Z,11.30
2023-05-11T01:18:30.121Z,11.30
2023-05-11T01:21:02.337Z,11.20
2023-05-11T01:23:43.138Z,11.40
2023-05-11T01:26:28.630Z,11.60
2023-05-11T01:29:07.490Z,11.70
2023-05-11T01:31:35.150Z,11.60
2023-05-11T01:34:05.802Z,11.60
2023-05-11T01:36:39.167Z,11.50
2023-05-11T01:39:10.000Z,11.60
2023-05-11T01:41:39.409Z,11.60
2023-05-11T01:44:09.679Z,11.60
2023-05-11T01:46:36.792Z,11.70
2023-05-11T01:49:09.794Z,11.80
2023-05-11T01:51:38.333Z,11.70
2023-05-11T01:54:09.404Z,11.60
2023-05-11T01:56:37.213Z,11.50
2023-05-11T01:59:05.017Z,11.60
2023-05-11T02:01:35.686Z,11.80
2023-05-11T02:04:04.848Z,11.90
2023-05-11T02:06:34.304Z,11.90
2023-05-11T02:09:03.158Z,12.00
2023-05-11T02:11:32.160Z,12.00
2023-05-11T02:14:00.244Z,12.00
2023-05-11T02:16:29.428Z,12.10
2023-05-11T02:18:57.796Z,12.20
2023-05-11T02:21:26.461Z,12.30
2023-05-11T02:23:54.101Z,12.30
2023-05-11T02:26:20.791Z,12.30
2023-05-11T02:28:47.338Z,12.40
2023-05-11T02:31:20.970Z,12.40
2023-05-11T02:33:52.442Z,12.40
2023-05-11T02:36:22.343Z,12.40
2023-05-11T02:38:54.871Z,12.20
2023-05-11T02:41:29.451Z,12.20
2023-05-11T02:43:58.626Z,12.30
2023-05-11T02:46:29.515Z,12.40
2023-05-11T02:49:01.249Z,12.50
2023-05-11T02:51:34.560Z,12.50
2023-05-11T02:54:01.678Z,12.50
2023-05-11T02:56:31.910Z,12.60
2023-05-11T02:58:58.725Z,12.50
2023-05-11T03:01:29.636Z,12.50
2023-05-11T03:03:57.350Z,12.50
2023-05-11T03:06:26.216Z,12.50
2023-05-11T03:08:52.988Z,12.50
2023-05-11T03:11:21.181Z,12.50
2023-05-11T03:13:50.031Z,12.40
2023-05-11T03:16:21.056Z,12.40
2023-05-11T03:18:49.733Z,12.40
2023-05-11T03:21:21.322Z,12.40
2023-05-11T03:23:49.346Z,12.40
2023-05-11T03:26:18.616Z,12.40
2023-05-11T03:28:46.856Z,12.30
2023-05-11T03:31:13.470Z,12.30
2023-05-11T03:33:40.653Z,12.30
2023-05-11T03:36:10.517Z,12.20
2023-05-11T03:38:37.964Z,12.10
2023-05-11T03:41:06.515Z,12.10
2023-05-11T03:43:37.614Z,12.10
2023-05-11T03:46:04.989Z,12.00
2023-05-11T03:48:32.301Z,12.00
2023-05-11T03:50:59.956Z,12.10
2023-05-11T03:53:26.737Z,12.10
2023-05-11T03:55:53.215Z,12.10
2023-05-11T03:58:20.298Z,12.20
2023-05-11T04:00:46.935Z,12.10
2023-05-11T04:03:13.912Z,12.10
2023-05-11T04:05:41.286Z,12.10
2023-05-11T04:08:11.094Z,12.10
2023-05-11T04:10:38.321Z,12.20
2023-05-11T04:13:05.010Z,12.30
2023-05-11T04:15:31.589Z,12.30
2023-05-11T04:17:58.162Z,12.20
2023-05-11T04:20:24.802Z,12.30
2023-05-11T04:22:51.268Z,12.40
2023-05-11T04:25:17.962Z,12.50
2023-05-11T04:27:45.049Z,12.40
2023-05-11T04:30:11.954Z,12.40
2023-05-11T04:32:38.972Z,12.40
2023-05-11T04:35:05.649Z,12.40
2023-05-11T04:37:35.463Z,12.50
2023-05-11T04:40:04.529Z,12.50
2023-05-11T04:42:36.817Z,12.50
2023-05-11T04:45:05.955Z,12.60
2023-05-11T04:47:32.519Z,12.70
2023-05-11T04:49:59.480Z,12.70
2023-05-11T04:52:26.050Z,12.80
2023-05-11T04:54:53.053Z,12.90
2023-05-11T04:57:19.844Z,13.00
2023-05-11T04:59:47.500Z,13.10
2023-05-11T05:02:14.068Z,13.10
2023-05-11T05:04:40.578Z,13.10
2023-05-11T05:07:07.458Z,13.10
2023-05-11T05:09:33.962Z,13.00
2023-05-11T05:12:01.586Z,13.00
2023-05-11T05:14:28.086Z,13.00
2023-05-11T05:16:54.739Z,13.00
2023-05-11T05:19:21.845Z,13.10
2023-05-11T05:21:49.964Z,13.10
2023-05-11T05:24:16.512Z,13.10
2023-05-11T05:26:43.486Z,13.10
2023-05-11T05:29:11.909Z,13.10
2023-05-11T05:31:38.522Z,13.10
2023-05-11T05:34:05.095Z,13.10
2023-05-11T05:36:32.405Z,13.10
2023-05-11T05:38:58.972Z,13.10
2023-05-11T05:41:25.719Z,13.00
2023-05-11T05:43:52.336Z,12.90
2023-05-11T05:46:18.920Z,12.80
2023-05-11T05:48:46.339Z,12.80
2023-05-11T05:51:13.378Z,12.80
2023-05-11T05:53:39.920Z,12.70
2023-05-11T05:56:06.858Z,12.70
2023-05-11T05:58:33.468Z,12.80
2023-05-11T06:01:00.882Z,13.00
2023-05-11T06:03:29.457Z,13.00
2023-05-11T06:05:56.907Z,13.10
2023-05-11T06:08:24.262Z,13.00
2023-05-11T06:10:51.028Z,13.10
2023-05-11T06:13:17.693Z,13.20
2023-05-11T06:15:44.574Z,13.20
2023-05-11T06:18:22.659Z,13.10
2023-05-11T06:20:49.304Z,13.10
2023-05-11T06:23:17.593Z,13.10
2023-05-11T06:25:44.473Z,13.30
2023-05-11T06:28:11.906Z,13.40
2023-05-11T06:30:39.010Z,13.50
2023-05-11T06:33:07.846Z,13.40
2023-05-11T06:35:37.489Z,13.40
2023-05-11T06:38:06.785Z,13.40
2023-05-11T06:40:35.415Z,13.40
2023-05-11T06:43:02.054Z,13.50
2023-05-11T06:45:45.207Z,13.60
2023-05-11T06:48:12.305Z,13.60
2023-05-11T06:50:38.833Z,13.70
2023-05-11T06:53:05.504Z,13.70
2023-05-11T06:55:32.268Z,13.80
2023-05-11T06:57:59.661Z,13.90
2023-05-11T07:00:26.256Z,14.00
2023-05-11T07:02:53.097Z,14.00
2023-05-11T07:05:19.715Z,14.10
2023-05-11T07:07:47.064Z,14.10
2023-05-11T07:10:13.551Z,14.10
2023-05-11T07:12:40.108Z,14.10
2023-05-11T07:15:07.151Z,14.20
2023-05-11T07:17:33.751Z,14.50
2023-05-11T07:20:00.276Z,14.70
2023-05-11T07:22:26.780Z,14.80
2023-05-11T07:24:53.313Z,14.90
2023-05-11T07:27:19.898Z,15.00
2023-05-11T07:29:46.366Z,15.10
2023-05-11T07:32:13.179Z,15.20
2023-05-11T07:34:41.114Z,15.20
2023-05-11T07:37:08.368Z,15.20
2023-05-11T07:39:35.133Z,15.30
2023-05-11T07:42:01.723Z,15.30
2023-05-11T07:44:28.241Z,15.30
2023-05-11T07:46:55.078Z,15.40
2023-05-11T07:49:28.164Z,15.50
2023-05-11T07:52:01.948Z,15.70
2023-05-11T07:54:28.471Z,15.90
2023-05-11T07:56:55.007Z,15.90
2023-05-11T07:59:21.481Z,15.90
2023-05-11T08:01:48.037Z,16.00
2023-05-11T08:04:14.612Z,16.10
2023-05-11T08:06:41.155Z,16.20
2023-05-11T08:09:07.717Z,16.30
2023-05-11T08:11:34.290Z,16.30
2023-05-11T08:14:00.789Z,16.30
2023-05-11T08:16:27.390Z,16.40
2023-05-11T08:18:53.953Z,16.50
2023-05-11T08:21:20.629Z,16.60
2023-05-11T08:23:47.125Z,16.60
2023-05-11T08:26:13.568Z,16.60
2023-05-11T08:28:40.033Z,16.40
2023-05-11T08:31:06.668Z,16.60
2023-05-11T08:33:38.032Z,16.70
2023-05-11T08:36:06.178Z,16.80
2023-05-11T08:38:33.332Z,16.80
2023-05-11T08:41:01.673Z,16.80
2023-05-11T08:43:30.052Z,16.90
2023-05-11T08:46:00.769Z,16.90
2023-05-11T08:48:27.811Z,16.80
2023-05-11T08:50:54.320Z,17.00
2023-05-11T08:53:20.929Z,17.10
2023-05-11T08:55:48.153Z,17.20
2023-05-11T08:58:19.382Z,17.30
2023-05-11T09:00:47.150Z,17.40
2023-05-11T09:03:14.668Z,17.50
2023-05-11T09:05:43.015Z,17.20
2023-05-11T09:08:12.339Z,17.00
2023-05-11T09:10:39.044Z,17.20
2023-05-11T09:13:06.047Z,17.30
2023-05-11T09:15:37.021Z,17.40
2023-05-11T09:18:04.818Z,17.40
2023-05-11T09:20:33.055Z,17.50
2023-05-11T09:23:00.664Z,17.60
2023-05-11T09:25:30.644Z,17.70
2023-05-11T09:27:59.173Z,17.70
2023-05-11T09:30:25.947Z,17.70
2023-05-11T09:32:57.691Z,17.70
2023-05-11T09:35:32.198Z,17.80
2023-05-11T09:38:02.906Z,17.70
2023-05-11T09:40:34.269Z,17.60
2023-05-11T09:43:02.421Z,17.50
2023-05-11T09:45:40.311Z,17.40
2023-05-11T09:48:08.466Z,17.30
2023-05-11T09:50:35.912Z,17.50
2023-05-11T09:53:02.583Z,17.50
2023-05-11T09:55:30.387Z,17.70
2023-05-11T09:57:58.829Z,17.90
2023-05-11T10:00:26.026Z,18.10
2023-05-11T10:03:06.592Z,18.30
2023-05-11T10:05:35.432Z,18.30
2023-05-11T10:08:03.903Z,18.40
2023-05-11T10:10:32.664Z,18.60
2023-05-11T10:13:01.233Z,18.70
2023-05-11T10:15:29.043Z,18.90
2023-05-11T10:17:57.105Z,18.80
2023-05-11T10:20:25.106Z,18.90
2023-05-11T10:22:56.008Z,19.00
2023-05-11T10:25:23.845Z,18.90
2023-05-11T10:27:51.347Z,18.70
2023-05-11T10:30:18.930Z,18.70
2023-05-11T10:32:47.181Z,18.70
2023-05-11T10:35:14.030Z,18.60
2023-05-11T10:37:42.816Z,18.40
2023-05-11T10:40:10.786Z,18.50
2023-05-11T10:43:05.526Z,18.40
2023-05-11T10:45:36.588Z,18.40
2023-05-11T10:48:44.520Z,18.20
2023-05-11T10:51:39.611Z,18.30
2023-05-11T10:54:33.401Z,18.80
2023-05-11T10:57:24.651Z,18.60
2023-05-11T11:00:35.830Z,18.40
2023-05-11T11:03:13.109Z,18.40
2023-05-11T11:05:40.369Z,18.70
2023-05-11T11:08:09.121Z,18.90
2023-05-11T11:10:38.330Z,18.70
2023-05-11T11:13:07.338Z,18.70
2023-05-11T11:15:55.646Z,18.40
2023-05-11T11:18:30.217Z,18.50
2023-05-11T11:20:58.488Z,18.80
2023-05-11T11:23:41.258Z,19.10
2023-05-11T11:26:09.901Z,19.30
2023-05-11T11:28:54.807Z,19.60
2023-05-11T11:31:27.939Z,19.70
2023-05-11T11:33:58.695Z,19.70
2023-05-11T11:36:56.271Z,19.60
2023-05-11T11:39:25.400Z,19.50
2023-05-11T11:42:01.718Z,19.90
2023-05-11T11:44:28.428Z,20.10
2023-05-11T11:47:15.444Z,20.40
2023-05-11T11:49:44.783Z,20.50
2023-05-11T11:52:35.083Z,20.70
2023-05-11T11:55:04.023Z,20.80
2023-05-11T11:57:33.665Z,20.80
2023-05-11T12:00:10.767Z,20.90
2023-05-11T12:02:45.825Z,21.00
2023-05-11T12:05:22.365Z,21.10
2023-05-11T12:07:51.450Z,20.80
2023-05-11T12:10:20.062Z,20.50
2023-05-11T12:12:48.211Z,20.30
2023-05-11T12:15:28.783Z,20.20
2023-05-11T12:17:56.480Z,20.20
2023-05-11T12:20:23.709Z,20.30
2023-05-11T12:22:50.733Z,20.30
2023-05-11T12:25:19.093Z,20.40
2023-05-11T12:27:48.357Z,20.50
2023-05-11T12:30:22.020Z,20.50
2023-05-11T12:32:48.886Z,20.50
2023-05-11T12:35:22.829Z,20.60
2023-05-11T12:37:49.478Z,20.90
2023-05-11T12:40:16.009Z,20.60
2023-05-11T12:42:56.694Z,20.70
2023-05-11T12:45:24.783Z,20.60
2023-05-11T12:47:54.026Z,20.70
2023-05-11T12:50:21.505Z,20.50
2023-05-11T12:52:49.112Z,20.40
2023-05-11T12:55:27.656Z,20.50
2023-05-11T12:58:07.397Z,20.80
2023-05-11T13:00:33.984Z,21.10
2023-05-11T13:03:00.606Z,21.20
2023-05-11T13:05:27.961Z,21.20
2023-05-11T13:08:05.005Z,21.30
2023-05-11T13:10:32.191Z,21.20
2023-05-11T13:12:59.196Z,21.30
2023-05-11T13:15:25.923Z,21.30
2023-05-11T13:18:03.231Z,21.20
2023-05-11T13:20:32.367Z,21.10
2023-05-11T13:23:04.842Z,21.10
2023-05-11T13:25:32.035Z,21.20
2023-05-11T13:27:58.843Z,20.90
2023-05-11T13:30:25.488Z,20.80
2023-05-11T13:32:52.048Z,20.80
2023-05-11T13:35:19.198Z,20.30
2023-05-11T13:37:46.947Z,20.00
2023-05-11T13:40:13.893Z,20.00
2023-05-11T13:42:41.589Z,19.90
2023-05-11T13:45:08.583Z,19.70
2023-05-11T13:47:35.928Z,19.60
2023-05-11T13:50:02.717Z,19.50
2023-05-11T13:52:29.297Z,19.40
2023-05-11T13:54:56.808Z,19.10
2023-05-11T13:57:23.530Z,18.80
2023-05-11T13:59:50.923Z,18.40
2023-05-11T14:02:17.494Z,17.90
2023-05-11T14:04:44.151Z,17.50
2023-05-11T14:07:10.728Z,17.50
2023-05-11T14:09:37.291Z,17.20
2023-05-11T14:12:04.238Z,17.00
2023-05-11T14:14:30.858Z,16.90
2023-05-11T14:16:57.483Z,16.80
2023-05-11T14:19:24.069Z,16.80
2023-05-11T14:21:50.766Z,16.80
2023-05-11T14:24:17.337Z,16.80
2023-05-11T14:26:43.937Z,16.90
2023-05-11T14:29:10.609Z,16.90
2023-05-11T14:31:37.822Z,16.80
2023-05-11T14:34:04.686Z,16.80
2023-05-11T14:36:32.026Z,16.80
2023-05-11T14:38:58.610Z,16.80
2023-05-11T14:41:25.586Z,16.80
2023-05-11T14:43:52.311Z,16.90
2023-05-11T14:46:19.533Z,17.00
2023-05-11T14:48:46.349Z,17.10
2023-05-11T14:51:12.892Z,17.20
2023-05-11T14:53:39.473Z,17.30
2023-05-11T14:56:06.668Z,17.20
2023-05-11T14:58:33.172Z,17.10
2023-05-11T15:00:59.721Z,17.10
2023-05-11T15:03:26.366Z,17.20
2023-05-11T15:05:52.931Z,17.20
2023-05-11T15:08:29.555Z,17.30
2023-05-11T15:10:57.295Z,17.20
2023-05-11T15:13:24.251Z,17.10
2023-05-11T15:15:51.423Z,17.10
2023-05-11T15:18:18.027Z,17.10
2023-05-11T15:20:44.722Z,17.00
2023-05-11T15:23:11.798Z,17.00
2023-05-11T15:25:38.476Z,17.00
2023-05-11T15:28:06.176Z,16.90
2023-05-11T15:30:32.944Z,16.70
2023-05-11T15:32:59.705Z,16.70
2023-05-11T15:35:26.358Z,16.70
2023-05-11T15:37:52.864Z,16.70
2023-05-11T15:40:19.378Z,16.60
2023-05-11T15:42:46.000Z,16.50
2023-05-11T15:45:12.504Z,16.40
2023-05-11T15:47:39.024Z,16.30
2023-05-11T15:50:06.460Z,16.30
2023-05-11T15:52:32.980Z,16.20
2023-05-11T15:54:59.469Z,16.20
2023-05-11T15:57:26.035Z,16.10
2023-05-11T15:59:52.572Z,16.10
2023-05-11T16:02:19.097Z,16.20
2023-05-11T16:04:45.973Z,16.20
2023-05-11T16:07:12.513Z,16.30
2023-05-11T16:09:39.069Z,16.20
2023-05-11T16:12:06.042Z,16.10
2023-05-11T16:14:32.773Z,16.00
2023-05-11T16:17:01.397Z,16.10
2023-05-11T16:19:28.144Z,16.10
2023-05-11T16:21:54.644Z,16.20
2023-05-11T16:24:21.108Z,16.30
2023-05-11T16:26:47.623Z,16.30
2023-05-11T16:29:14.116Z,16.40
2023-05-11T16:31:40.814Z,16.40
2023-05-11T16:34:07.546Z,16.40
2023-05-11T16:36:34.154Z,16.30
2023-05-11T16:39:00.830Z,16.40
2023-05-11T16:41:28.700Z,16.40
2023-05-11T16:43:55.954Z,16.30
2023-05-11T16:46:22.599Z,16.20
2023-05-11T16:48:49.238Z,16.30
2023-05-11T16:51:15.796Z,16.20
2023-05-11T16:53:43.077Z,16.20
2023-05-11T16:56:09.560Z,16.30
2023-05-11T16:58:36.139Z,16.40
2023-05-11T17:01:02.839Z,16.50
2023-05-11T17:03:29.443Z,16.50
2023-05-11T17:05:56.142Z,16.50
2023-05-11T17:08:22.610Z,16.50
2023-05-11T17:10:49.120Z,16.40
2023-05-11T17:13:15.651Z,16.30
2023-05-11T17:15:42.204Z,16.30
2023-05-11T17:18:08.782Z,16.20
2023-05-11T17:20:35.675Z,16.20
2023-05-11T17:23:02.148Z,16.20
2023-05-11T17:25:29.940Z,16.20
2023-05-11T17:27:56.477Z,16.20
2023-05-11T17:30:27.639Z,16.20
2023-05-11T17:33:02.866Z,16.10
2023-05-11T17:35:29.561Z,16.00
2023-05-11T17:37:56.022Z,16.00
2023-05-11T17:40:22.510Z,16.10
2023-05-11T17:42:49.544Z,16.10
2023-05-11T17:45:16.137Z,16.10
2023-05-11T17:47:43.559Z,16.20
2023-05-11T17:50:10.601Z,16.10
2023-05-11T17:52:37.122Z,16.00
2023-05-11T17:55:04.660Z,15.90
2023-05-11T17:57:31.278Z,15.80
2023-05-11T17:59:57.831Z,15.80
2023-05-11T18:02:24.826Z,15.80
2023-05-11T18:04:51.464Z,15.90
2023-05-11T18:07:17.999Z,15.80
2023-05-11T18:09:44.535Z,15.70
2023-05-11T18:12:11.682Z,15.80
2023-05-11T18:14:38.164Z,15.80
2023-05-11T18:17:05.244Z,15.70
2023-05-11T18:19:31.778Z,15.50
2023-05-11T18:21:58.835Z,15.40
2023-05-11T18:24:25.352Z,15.30
2023-05-11T18:26:52.036Z,15.30
2023-05-11T18:29:20.158Z,15.20
2023-05-11T18:31:46.806Z,15.20
2023-05-11T18:34:13.374Z,15.20
2023-05-11T18:36:39.924Z,15.30
2023-05-11T18:39:06.436Z,15.30
2023-05-11T18:41:34.593Z,15.20
2023-05-11T18:44:01.149Z,15.20
2023-05-11T18:46:27.705Z,15.10
2023-05-11T18:48:54.377Z,15.00
2023-05-11T18:51:22.638Z,15.00
2023-05-11T18:53:49.889Z,15.00
2023-05-11T18:56:17.305Z,15.00
2023-05-11T18:58:47.919Z,15.10
2023-05-11T19:01:15.252Z,15.10
2023-05-11T19:03:42.523Z,15.00
2023-05-11T19:06:09.182Z,14.90
2023-05-11T19:08:35.833Z,14.90
2023-05-11T19:11:07.445Z,14.80
2023-05-11T19:13:34.778Z,14.80
2023-05-11T19:16:03.970Z,14.70
2023-05-11T19:18:32.221Z,14.60
2023-05-11T19:20:58.880Z,14.60
2023-05-11T19:23:25.390Z,14.50
2023-05-11T19:25:51.931Z,14.50
2023-05-11T19:28:18.576Z,14.50
2023-05-11T19:30:45.218Z,14.40
2023-05-11T19:33:11.896Z,14.40
2023-05-11T19:35:38.462Z,14.40
2023-05-11T19:38:06.272Z,14.40
2023-05-11T19:43:05.425Z,14.30
2023-05-11T19:45:33.117Z,14.30
2023-05-11T19:47:59.956Z,14.30
2023-05-11T19:50:26.745Z,14.30
2023-05-11T19:52:53.539Z,14.30
2023-05-11T19:55:21.301Z,14.30
2023-05-11T19:57:47.838Z,14.30
2023-05-11T20:00:14.499Z,14.40
2023-05-11T20:02:41.129Z,14.50
2023-05-11T20:05:08.017Z,14.40
2023-05-11T20:07:34.677Z,14.40
2023-05-11T20:10:01.280Z,14.50
2023-05-11T20:12:27.826Z,14.50
2023-05-11T20:14:54.451Z,14.50
2023-05-11T20:17:21.639Z,14.50
2023-05-11T20:19:48.247Z,14.40
2023-05-11T20:22:14.732Z,14.40
2023-05-11T20:24:41.258Z,14.40
2023-05-11T20:27:09.595Z,14.40
2023-05-11T20:29:36.505Z,14.40
2023-05-11T20:32:03.506Z,14.40
2023-05-11T20:34:30.302Z,14.30
2023-05-11T20:36:57.015Z,14.30
2023-05-11T20:39:23.570Z,14.30
2023-05-11T20:41:50.249Z,14.30
2023-05-11T20:44:17.613Z,14.40
2023-05-11T20:46:44.245Z,14.40
2023-05-11T20:49:16.758Z,14.40
2023-05-11T20:51:51.181Z,14.40
2023-05-11T20:54:18.008Z,14.40
2023-05-11T20:56:44.609Z,14.30
2023-05-11T21:00:03.554Z,14.20
2023-05-11T21:01:59.028Z,14.10
2023-05-11T21:04:25.791Z,14.10
2023-05-11T21:06:55.513Z,14.10
2023-05-11T21:09:22.031Z,14.10
2023-05-11T21:11:48.953Z,14.00
2023-05-11T21:14:15.590Z,14.00
2023-05-11T21:16:42.278Z,13.90
2023-05-11T21:19:09.072Z,13.90
2023-05-11T21:21:35.815Z,14.00
2023-05-11T21:24:02.416Z,14.00
2023-05-11T21:26:28.970Z,14.00
2023-05-11T21:28:57.378Z,14.00
2023-05-11T21:31:23.874Z,14.00
2023-05-11T21:33:50.705Z,14.10
2023-05-11T21:36:17.229Z,14.10
2023-05-11T21:38:43.879Z,14.10
2023-05-11T21:41:11.097Z,14.00
2023-05-11T21:43:37.618Z,14.10
2023-05-11T21:46:04.206Z,14.10
2023-05-11T21:48:30.728Z,14.10
2023-05-11T21:50:57.300Z,14.20
2023-05-11T21:53:23.892Z,14.10
2023-05-11T21:55:50.622Z,14.20
2023-05-11T21:58:17.451Z,14.30
2023-05-11T22:00:44.250Z,14.30
2023-05-11T22:03:10.858Z,14.20
2023-05-11T22:05:37.393Z,14.30
2023-05-11T22:08:13.971Z,14.40
2023-05-11T22:10:41.737Z,14.40
2023-05-11T22:13:08.258Z,14.50
2023-05-11T22:15:34.795Z,14.50
2023-05-11T22:18:01.361Z,14.50
2023-05-11T22:20:27.908Z,14.50
2023-05-11T22:22:54.408Z,14.50
2023-05-11T22:25:20.882Z,14.40
2023-05-11T22:27:47.832Z,14.30
2023-05-11T22:30:14.464Z,14.30
2023-05-11T22:32:41.301Z,14.30
2023-05-11T22:35:08.311Z,14.40
2023-05-11T22:37:34.739Z,14.40
2023-05-11T22:40:01.291Z,14.40
2023-05-11T22:42:30.631Z,14.50
2023-05-11T22:44:57.152Z,14.50
2023-05-11T22:47:24.128Z,14.50
2023-05-11T22:49:50.650Z,14.50
2023-05-11T22:52:17.489Z,14.40
2023-05-11T22:54:43.980Z,14.40
2023-05-11T22:57:13.396Z,14.50
2023-05-11T22:59:39.963Z,14.50
2023-05-11T23:02:06.476Z,14.40
2023-05-11T23:04:33.045Z,14.40
2023-05-11T23:06:59.846Z,14.40
2023-05-11T23:09:26.606Z,14.30
2023-05-11T23:11:53.490Z,14.30
2023-05-11T23:14:20.036Z,14.20
2023-05-11T23:16:46.490Z,14.20
2023-05-11T23:19:13.079Z,14.20
2023-05-11T23:21:39.550Z,14.30
2023-05-11T23:24:06.930Z,14.30
2023-05-11T23:26:33.990Z,14.30
2023-05-11T23:29:00.505Z,14.20
2023-05-11T23:31:28.372Z,14.20
2023-05-11T23:33:55.201Z,14.20
2023-05-11T23:36:21.677Z,14.20
2023-05-11T23:38:48.260Z,14.20
2023-05-11T23:41:14.780Z,14.10
2023-05-11T23:43:41.554Z,14.10
2023-05-11T23:46:08.141Z,14.00
2023-05-11T23:48:34.880Z,14.00
2023-05-11T23:51:01.508Z,13.90
2023-05-11T23:53:28.156Z,13.90
2023-05-11T23:55:54.670Z,13.90
2023-05-11T23:58:21.232Z,13.90
